Thursday, November 23, 2017, 7:22 PM EST
Back to Local

KCDW, Caldwell Essex County Airport

Location: Fairfield, NJ, United States Lat: 40.883
Local Time: 7:22 PM EST ( 0:22 GMT) Lon: -74.283
Time Zone: US/Eastern Elev: 173 ft

Show me the last for .
Show Decoded

2017-11-23 18:53 METAR KCDW 232353Z 00000KT 10SM CLR 01/M06 A3003 RMK AO2 SLP175 T00061056 10067
                 20006 51004 =
2017-11-23 17:53 METAR KCDW 232253Z 00000KT 10SM CLR 02/M07 A3003 RMK AO2 SLP175 T00171067 =
2017-11-23 16:53 METAR KCDW 232153Z 00000KT 10SM CLR 04/M07 A3002 RMK AO2 SLP172 T00391072 =
2017-11-23 15:53 METAR KCDW 232053Z VRB03KT 10SM CLR 06/M08 A3002 RMK AO2 SLP171 T00561078 56013
                 =
2017-11-23 14:53 METAR KCDW 231953Z 32005KT 10SM CLR 06/M08 A3002 RMK AO2 SLP172 T00611078 =
2017-11-23 13:53 METAR KCDW 231853Z 31007KT 10SM CLR 06/M07 A3003 RMK AO2 SLP177 T00561072 =
2017-11-23 12:53 METAR KCDW 231753Z 00000KT 10SM CLR 05/M08 A3005 RMK AO2 SLP184 T00501078 10056
                 21028 56025 =
2017-11-23 11:53 METAR KCDW 231653Z 28006KT 10SM CLR 04/M08 A3007 RMK AO2 SLP190 T00391078 =
2017-11-23 10:53 METAR KCDW 231553Z 28006KT 10SM CLR 03/M08 A3010 RMK AO2 SLP200 T00281078 =
2017-11-23 09:53 METAR KCDW 231453Z VRB05KT 10SM CLR 02/M07 A3013 RMK AO2 SLP209 T00221072 50004
                 =
2017-11-23 08:53 METAR KCDW 231353Z VRB03KT 10SM CLR 01/M07 A3013 RMK AO2 SLP210 T00061072 =
2017-11-23 07:53 METAR KCDW 231253Z 31003KT 10SM CLR M01/M07 A3013 RMK AO2 SLP209 T10111072 =
2017-11-23 06:53 METAR KCDW 231153Z AUTO 00000KT 10SM CLR M02/M08 A3012 RMK AO2 SLP205 60000
                 70003 T10221078 11006 21022 53008 TSNO =
2017-11-23 05:53 METAR KCDW 231053Z AUTO 32004KT 10SM CLR M01/M08 A3010 RMK AO2 SLP200 T10111083
                 TSNO =
2017-11-23 04:53 METAR KCDW 230953Z AUTO 00000KT 10SM CLR M01/M08 A3009 RMK AO2 SLP196 T10061078
                 TSNO =
2017-11-23 03:53 METAR KCDW 230853Z AUTO 33004KT 10SM CLR M01/M08 A3009 RMK AO2 SLP196 60000
                 T10061078 58002 TSNO =
2017-11-23 02:53 METAR KCDW 230753Z AUTO 00000KT 10SM CLR M01/M07 A3012 RMK AO2 SNB05E12 SLP205
                 P0000 T10111072 TSNO =
2017-11-23 01:53 METAR KCDW 230653Z AUTO 29003KT 10SM CLR M01/M07 A3011 RMK AO2 SLP201 T10061072
                 TSNO =
2017-11-23 00:53 METAR KCDW 230553Z AUTO 30006KT 10SM CLR M02/M06 A3010 RMK AO2 SLP198 60000
                 T10171061 10039 21017 50001 TSNO =
2017-11-22 23:53 METAR KCDW 230453Z AUTO 00000KT 10SM FEW037 00/M07 A3011 RMK AO2 SLP201
                 T00001067 401060000 TSNO =
2017-11-22 22:53 METAR KCDW 230353Z AUTO 28003KT 10SM FEW038 01/M07 A3010 RMK AO2 SNE0256B12E24
                 SLP200 P0000 T00061067 TSNO =
2017-11-22 21:53 METAR KCDW 230253Z AUTO 34008KT 9SM -SN CLR 02/M07 A3010 RMK AO2 SNB13 SLP197
                 P0000 60000 T00171067 51017 TSNO =
2017-11-22 20:53 METAR KCDW 230153Z AUTO 33007G15KT 9SM FEW040 02/M06 A3008 RMK AO2 SNE53 SLP192
                 P0000 T00171061 TSNO =
2017-11-22 19:53 METAR KCDW 230053Z AUTO 31011G17KT 290V350 9SM -SN OVC039 03/M05 A3007 RMK AO2
                 RAE00SNB00 SLP187 P0000 T00331050 TSNO =

Support USWX by starting your Amazon purchase here.